Metar z połowy godziny Komunikat METAR ze strony awiacja.imgw.pl Metar G30 EPLY METAR EPLY 170900Z 16006KT 9999 SCT040 25/16 Q1018 RMK 251 055 3/3=